sensor_id;sensor_type;location;lat;lon;timestamp;temperature;humidity
71627;DHT22;59475;52.464;13.590;2023-10-09T00:01:34;9.95;88.01
71627;DHT22;59475;52.464;13.590;2023-10-09T00:04:03;9.92;88.21
71627;DHT22;59475;52.464;13.590;2023-10-09T00:06:29;9.91;88.11
71627;DHT22;59475;52.464;13.590;2023-10-09T00:09:06;9.91;88.51
71627;DHT22;59475;52.464;13.590;2023-10-09T00:11:54;9.89;88.70
71627;DHT22;59475;52.464;13.590;2023-10-09T00:14:25;9.86;88.89
71627;DHT22;59475;52.464;13.590;2023-10-09T00:16:51;9.89;88.79
71627;DHT22;59475;52.464;13.590;2023-10-09T00:19:21;9.88;88.98
71627;DHT22;59475;52.464;13.590;2023-10-09T00:21:55;9.86;89.75
71627;DHT22;59475;52.464;13.590;2023-10-09T00:24:22;9.86;90.34
71627;DHT22;59475;52.464;13.590;2023-10-09T00:26:51;9.84;90.85
71627;DHT22;59475;52.464;13.590;2023-10-09T00:32:42;9.68;90.50
71627;DHT22;59475;52.464;13.590;2023-10-09T00:35:15;9.61;90.95
71627;DHT22;59475;52.464;13.590;2023-10-09T00:37:59;9.61;91.26
71627;DHT22;59475;52.464;13.590;2023-10-09T00:40:39;9.61;91.69
71627;DHT22;59475;52.464;13.590;2023-10-09T00:43:12;9.62;91.62
71627;DHT22;59475;52.464;13.590;2023-10-09T00:45:39;9.62;91.99
71627;DHT22;59475;52.464;13.590;2023-10-09T00:48:07;9.64;91.77
71627;DHT22;59475;52.464;13.590;2023-10-09T00:50:34;9.62;92.09
71627;DHT22;59475;52.464;13.590;2023-10-09T00:53:05;9.64;92.28
71627;DHT22;59475;52.464;13.590;2023-10-09T00:55:43;9.65;92.56
71627;DHT22;59475;52.464;13.590;2023-10-09T00:58:20;9.64;93.07
71627;DHT22;59475;52.464;13.590;2023-10-09T01:00:49;9.67;93.44
71627;DHT22;59475;52.464;13.590;2023-10-09T01:03:18;9.67;93.43
71627;DHT22;59475;52.464;13.590;2023-10-09T01:08:22;9.70;93.76
71627;DHT22;59475;52.464;13.590;2023-10-09T01:11:03;9.71;93.75
71627;DHT22;59475;52.464;13.590;2023-10-09T01:13:41;9.70;94.01
71627;DHT22;59475;52.464;13.590;2023-10-09T01:16:16;9.70;94.29
71627;DHT22;59475;52.464;13.590;2023-10-09T01:18:46;9.68;94.73
71627;DHT22;59475;52.464;13.590;2023-10-09T01:21:15;9.67;94.70
71627;DHT22;59475;52.464;13.590;2023-10-09T01:23:44;9.62;94.85
71627;DHT22;59475;52.464;13.590;2023-10-09T01:29:10;9.61;95.31
71627;DHT22;59475;52.464;13.590;2023-10-09T01:31:43;9.58;95.13
71627;DHT22;59475;52.464;13.590;2023-10-09T01:34:11;9.58;95.18
71627;DHT22;59475;52.464;13.590;2023-10-09T01:36:40;9.58;95.30
71627;DHT22;59475;52.464;13.590;2023-10-09T01:39:06;9.58;95.21
71627;DHT22;59475;52.464;13.590;2023-10-09T01:41:50;9.59;95.08
71627;DHT22;59475;52.464;13.590;2023-10-09T01:44:17;9.61;95.21
71627;DHT22;59475;52.464;13.590;2023-10-09T01:46:44;9.64;95.30
71627;DHT22;59475;52.464;13.590;2023-10-09T01:49:13;9.64;95.34
71627;DHT22;59475;52.464;13.590;2023-10-09T01:51:47;9.62;95.59
71627;DHT22;59475;52.464;13.590;2023-10-09T01:54:14;9.61;95.64
71627;DHT22;59475;52.464;13.590;2023-10-09T01:56:58;9.59;95.69
71627;DHT22;59475;52.464;13.590;2023-10-09T01:59:30;9.61;95.73
71627;DHT22;59475;52.464;13.590;2023-10-09T02:01:56;9.65;95.78
71627;DHT22;59475;52.464;13.590;2023-10-09T02:04:23;9.61;95.62
71627;DHT22;59475;52.464;13.590;2023-10-09T02:10:12;9.58;95.63
71627;DHT22;59475;52.464;13.590;2023-10-09T02:12:49;9.58;95.45
71627;DHT22;59475;52.464;13.590;2023-10-09T02:15:26;9.61;95.59
71627;DHT22;59475;52.464;13.590;2023-10-09T02:18:10;9.59;95.55
71627;DHT22;59475;52.464;13.590;2023-10-09T02:23:32;9.62;95.93
71627;DHT22;59475;52.464;13.590;2023-10-09T02:26:17;9.61;96.13
71627;DHT22;59475;52.464;13.590;2023-10-09T02:29:05;9.59;96.10
71627;DHT22;59475;52.464;13.590;2023-10-09T02:31:40;9.62;96.01
71627;DHT22;59475;52.464;13.590;2023-10-09T02:34:08;9.61;96.15
71627;DHT22;59475;52.464;13.590;2023-10-09T02:36:35;9.62;96.39
71627;DHT22;59475;52.464;13.590;2023-10-09T02:39:06;9.62;96.50
71627;DHT22;59475;52.464;13.590;2023-10-09T02:41:37;9.64;96.53
71627;DHT22;59475;52.464;13.590;2023-10-09T02:44:14;9.68;96.67
71627;DHT22;59475;52.464;13.590;2023-10-09T02:46:40;9.65;96.65
71627;DHT22;59475;52.464;13.590;2023-10-09T02:49:05;9.68;96.61
71627;DHT22;59475;52.464;13.590;2023-10-09T02:51:31;9.70;96.61
71627;DHT22;59475;52.464;13.590;2023-10-09T02:54:07;9.70;96.54
71627;DHT22;59475;52.464;13.590;2023-10-09T02:56:53;9.68;96.46
71627;DHT22;59475;52.464;13.590;2023-10-09T02:59:32;9.70;96.45
71627;DHT22;59475;52.464;13.590;2023-10-09T03:01:58;9.68;96.40
71627;DHT22;59475;52.464;13.590;2023-10-09T03:04:28;9.65;96.44
71627;DHT22;59475;52.464;13.590;2023-10-09T03:06:57;9.61;96.40
71627;DHT22;59475;52.464;13.590;2023-10-09T03:09:24;9.55;96.51
71627;DHT22;59475;52.464;13.590;2023-10-09T03:12:03;9.61;96.46
71627;DHT22;59475;52.464;13.590;2023-10-09T03:14:33;9.58;96.38
71627;DHT22;59475;52.464;13.590;2023-10-09T03:17:01;9.58;96.49
71627;DHT22;59475;52.464;13.590;2023-10-09T03:19:28;9.58;96.55
71627;DHT22;59475;52.464;13.590;2023-10-09T03:21:54;9.58;96.57
71627;DHT22;59475;52.464;13.590;2023-10-09T03:24:23;9.57;96.65
71627;DHT22;59475;52.464;13.590;2023-10-09T03:26:48;9.57;96.76
71627;DHT22;59475;52.464;13.590;2023-10-09T03:29:15;9.54;96.86
71627;DHT22;59475;52.464;13.590;2023-10-09T03:31:40;9.51;96.87
71627;DHT22;59475;52.464;13.590;2023-10-09T03:34:08;9.54;96.91
71627;DHT22;59475;52.464;13.590;2023-10-09T03:36:36;9.55;97.04
71627;DHT22;59475;52.464;13.590;2023-10-09T03:39:05;9.54;97.26
71627;DHT22;59475;52.464;13.590;2023-10-09T03:41:44;9.54;97.52
71627;DHT22;59475;52.464;13.590;2023-10-09T03:44:13;9.57;97.26
71627;DHT22;59475;52.464;13.590;2023-10-09T03:46:39;9.58;97.36
71627;DHT22;59475;52.464;13.590;2023-10-09T03:49:04;9.57;97.49
71627;DHT22;59475;52.464;13.590;2023-10-09T03:51:36;9.58;97.77
71627;DHT22;59475;52.464;13.590;2023-10-09T03:54:02;9.55;97.64
71627;DHT22;59475;52.464;13.590;2023-10-09T03:56:32;9.57;97.74
71627;DHT22;59475;52.464;13.590;2023-10-09T03:58:58;9.61;97.82
71627;DHT22;59475;52.464;13.590;2023-10-09T04:01:23;9.57;97.85
71627;DHT22;59475;52.464;13.590;2023-10-09T04:07:16;9.62;97.96
71627;DHT22;59475;52.464;13.590;2023-10-09T04:09:42;9.61;97.70
71627;DHT22;59475;52.464;13.590;2023-10-09T04:15:49;9.54;97.69
71627;DHT22;59475;52.464;13.590;2023-10-09T04:18:15;9.50;98.00
71627;DHT22;59475;52.464;13.590;2023-10-09T04:20:41;9.46;97.83
71627;DHT22;59475;52.464;13.590;2023-10-09T04:23:10;9.38;98.11
71627;DHT22;59475;52.464;13.590;2023-10-09T04:29:03;9.27;97.94
71627;DHT22;59475;52.464;13.590;2023-10-09T04:31:29;9.27;98.24
71627;DHT22;59475;52.464;13.590;2023-10-09T04:34:03;9.26;98.22
71627;DHT22;59475;52.464;13.590;2023-10-09T04:36:50;9.29;98.16
71627;DHT22;59475;52.464;13.590;2023-10-09T04:39:19;9.23;97.98
71627;DHT22;59475;52.464;13.590;2023-10-09T04:45:18;9.23;98.03
71627;DHT22;59475;52.464;13.590;2023-10-09T04:48:06;9.23;97.77
71627;DHT22;59475;52.464;13.590;2023-10-09T04:50:32;9.23;97.95
71627;DHT22;59475;52.464;13.590;2023-10-09T04:52:57;9.24;98.09
71627;DHT22;59475;52.464;13.590;2023-10-09T04:55:39;9.27;98.06
71627;DHT22;59475;52.464;13.590;2023-10-09T05:01:30;9.26;97.61
71627;DHT22;59475;52.464;13.590;2023-10-09T05:04:08;9.24;97.69
71627;DHT22;59475;52.464;13.590;2023-10-09T05:06:52;9.24;97.77
71627;DHT22;59475;52.464;13.590;2023-10-09T05:09:21;9.23;97.87
71627;DHT22;59475;52.464;13.590;2023-10-09T05:11:47;9.26;97.96
71627;DHT22;59475;52.464;13.590;2023-10-09T05:17:37;9.29;97.54
71627;DHT22;59475;52.464;13.590;2023-10-09T05:20:04;9.29;97.57
71627;DHT22;59475;52.464;13.590;2023-10-09T05:22:48;9.26;97.68
71627;DHT22;59475;52.464;13.590;2023-10-09T05:25:24;9.22;97.61
71627;DHT22;59475;52.464;13.590;2023-10-09T05:28:19;9.24;97.63
71627;DHT22;59475;52.464;13.590;2023-10-09T05:34:17;9.23;97.99
71627;DHT22;59475;52.464;13.590;2023-10-09T05:36:45;9.22;98.01
71627;DHT22;59475;52.464;13.590;2023-10-09T05:42:35;9.17;98.24
71627;DHT22;59475;52.464;13.590;2023-10-09T05:45:11;9.23;97.91
71627;DHT22;59475;52.464;13.590;2023-10-09T05:47:53;9.20;98.07
71627;DHT22;59475;52.464;13.590;2023-10-09T05:50:29;9.24;97.89
71627;DHT22;59475;52.464;13.590;2023-10-09T05:52:56;9.23;98.00
71627;DHT22;59475;52.464;13.590;2023-10-09T05:55:25;9.26;98.11
71627;DHT22;59475;52.464;13.590;2023-10-09T06:01:31;9.31;98.44
71627;DHT22;59475;52.464;13.590;2023-10-09T06:04:15;9.31;98.19
71627;DHT22;59475;52.464;13.590;2023-10-09T06:06:41;9.34;98.27
71627;DHT22;59475;52.464;13.590;2023-10-09T06:09:12;9.37;98.23
71627;DHT22;59475;52.464;13.590;2023-10-09T06:14:07;9.40;98.05
71627;DHT22;59475;52.464;13.590;2023-10-09T06:16:38;9.43;98.17
71627;DHT22;59475;52.464;13.590;2023-10-09T06:19:14;9.43;98.21
71627;DHT22;59475;52.464;13.590;2023-10-09T06:21:48;9.48;98.34
71627;DHT22;59475;52.464;13.590;2023-10-09T06:27:38;9.57;98.35
71627;DHT22;59475;52.464;13.590;2023-10-09T06:30:22;9.61;98.44
71627;DHT22;59475;52.464;13.590;2023-10-09T06:32:52;9.67;98.29
71627;DHT22;59475;52.464;13.590;2023-10-09T06:35:20;9.70;98.09
71627;DHT22;59475;52.464;13.590;2023-10-09T06:37:55;9.64;97.86
71627;DHT22;59475;52.464;13.590;2023-10-09T06:40:37;9.73;98.13
71627;DHT22;59475;52.464;13.590;2023-10-09T06:43:22;9.75;98.31
71627;DHT22;59475;52.464;13.590;2023-10-09T06:45:48;9.84;98.16
71627;DHT22;59475;52.464;13.590;2023-10-09T06:51:41;9.93;97.77
71627;DHT22;59475;52.464;13.590;2023-10-09T06:54:06;9.91;97.07
71627;DHT22;59475;52.464;13.590;2023-10-09T07:00:05;9.96;97.53
71627;DHT22;59475;52.464;13.590;2023-10-09T07:02:53;10.05;97.64
71627;DHT22;59475;52.464;13.590;2023-10-09T07:05:19;10.02;97.30
71627;DHT22;59475;52.464;13.590;2023-10-09T07:07:44;10.06;97.62
71627;DHT22;59475;52.464;13.590;2023-10-09T07:10:20;10.13;97.49
71627;DHT22;59475;52.464;13.590;2023-10-09T07:12:54;10.17;97.23
71627;DHT22;59475;52.464;13.590;2023-10-09T07:15:23;10.20;96.99
71627;DHT22;59475;52.464;13.590;2023-10-09T07:18:07;10.22;97.17
71627;DHT22;59475;52.464;13.590;2023-10-09T07:20:45;10.30;97.13
71627;DHT22;59475;52.464;13.590;2023-10-09T07:23:24;10.30;96.83
71627;DHT22;59475;52.464;13.590;2023-10-09T07:26:01;10.39;96.92
71627;DHT22;59475;52.464;13.590;2023-10-09T07:28:42;10.43;96.58
71627;DHT22;59475;52.464;13.590;2023-10-09T07:31:15;10.46;95.75
71627;DHT22;59475;52.464;13.590;2023-10-09T07:33:50;10.47;96.47
71627;DHT22;59475;52.464;13.590;2023-10-09T07:36:25;10.50;95.87
71627;DHT22;59475;52.464;13.590;2023-10-09T07:39:04;10.54;95.91
71627;DHT22;59475;52.464;13.590;2023-10-09T07:41:38;10.53;95.48
71627;DHT22;59475;52.464;13.590;2023-10-09T07:44:10;10.54;95.64
71627;DHT22;59475;52.464;13.590;2023-10-09T07:46:45;10.60;95.94
71627;DHT22;59475;52.464;13.590;2023-10-09T07:49:38;10.65;96.23
71627;DHT22;59475;52.464;13.590;2023-10-09T07:55:25;10.69;95.20
71627;DHT22;59475;52.464;13.590;2023-10-09T07:57:54;10.63;95.12
71627;DHT22;59475;52.464;13.590;2023-10-09T08:00:20;10.67;95.84
71627;DHT22;59475;52.464;13.590;2023-10-09T08:03:24;10.65;95.48
71627;DHT22;59475;52.464;13.590;2023-10-09T08:05:53;10.67;95.35
71627;DHT22;59475;52.464;13.590;2023-10-09T08:11:53;10.58;95.14
71627;DHT22;59475;52.464;13.590;2023-10-09T08:14:37;10.60;95.49
71627;DHT22;59475;52.464;13.590;2023-10-09T08:17:08;10.61;95.37
71627;DHT22;59475;52.464;13.590;2023-10-09T08:23:07;10.63;95.55
71627;DHT22;59475;52.464;13.590;2023-10-09T08:25:47;10.65;95.12
71627;DHT22;59475;52.464;13.590;2023-10-09T08:28:32;10.68;94.99
71627;DHT22;59475;52.464;13.590;2023-10-09T08:34:26;10.72;94.68
71627;DHT22;59475;52.464;13.590;2023-10-09T08:36:52;10.71;94.39
71627;DHT22;59475;52.464;13.590;2023-10-09T08:42:40;10.88;95.83
71627;DHT22;59475;52.464;13.590;2023-10-09T08:48:28;11.04;95.32
71627;DHT22;59475;52.464;13.590;2023-10-09T08:50:55;11.13;94.73
71627;DHT22;59475;52.464;13.590;2023-10-09T08:53:23;11.08;93.87
71627;DHT22;59475;52.464;13.590;2023-10-09T08:55:49;11.11;94.24
71627;DHT22;59475;52.464;13.590;2023-10-09T08:58:17;11.15;94.38
71627;DHT22;59475;52.464;13.590;2023-10-09T09:01:02;11.12;93.65
71627;DHT22;59475;52.464;13.590;2023-10-09T09:03:38;11.16;93.33
71627;DHT22;59475;52.464;13.590;2023-10-09T09:09:25;11.19;93.72
71627;DHT22;59475;52.464;13.590;2023-10-09T09:11:53;11.25;93.97
71627;DHT22;59475;52.464;13.590;2023-10-09T09:17:41;11.42;92.91
71627;DHT22;59475;52.464;13.590;2023-10-09T09:20:21;11.51;93.66
71627;DHT22;59475;52.464;13.590;2023-10-09T09:22:55;11.56;92.81
71627;DHT22;59475;52.464;13.590;2023-10-09T09:25:24;11.61;93.51
71627;DHT22;59475;52.464;13.590;2023-10-09T09:27:50;11.70;92.94
71627;DHT22;59475;52.464;13.590;2023-10-09T09:30:29;11.70;92.00
71627;DHT22;59475;52.464;13.590;2023-10-09T09:33:06;11.70;91.89
71627;DHT22;59475;52.464;13.590;2023-10-09T09:36:02;11.78;91.82
71627;DHT22;59475;52.464;13.590;2023-10-09T09:38:28;11.75;91.71
71627;DHT22;59475;52.464;13.590;2023-10-09T09:40:56;11.74;91.59
71627;DHT22;59475;52.464;13.590;2023-10-09T09:46:44;11.69;90.46
71627;DHT22;59475;52.464;13.590;2023-10-09T09:49:10;11.59;90.67
71627;DHT22;59475;52.464;13.590;2023-10-09T09:51:42;11.57;91.11
71627;DHT22;59475;52.464;13.590;2023-10-09T09:54:14;11.60;90.76
71627;DHT22;59475;52.464;13.590;2023-10-09T09:56:46;11.56;91.47
71627;DHT22;59475;52.464;13.590;2023-10-09T09:59:17;11.53;90.73
71627;DHT22;59475;52.464;13.590;2023-10-09T10:01:49;11.53;90.91
71627;DHT22;59475;52.464;13.590;2023-10-09T10:04:26;11.56;91.29
71627;DHT22;59475;52.464;13.590;2023-10-09T10:06:54;11.66;91.54
71627;DHT22;59475;52.464;13.590;2023-10-09T10:15:12;11.92;90.44
71627;DHT22;59475;52.464;13.590;2023-10-09T10:20:26;11.87;89.94
71627;DHT22;59475;52.464;13.590;2023-10-09T10:23:15;11.70;90.04
71627;DHT22;59475;52.464;13.590;2023-10-09T10:25:44;11.67;90.49
71627;DHT22;59475;52.464;13.590;2023-10-09T10:31:01;11.80;91.16
71627;DHT22;59475;52.464;13.590;2023-10-09T10:36:53;11.94;90.43
71627;DHT22;59475;52.464;13.590;2023-10-09T10:39:25;12.08;90.81
71627;DHT22;59475;52.464;13.590;2023-10-09T10:45:34;12.35;89.03
71627;DHT22;59475;52.464;13.590;2023-10-09T10:48:01;12.43;87.76
71627;DHT22;59475;52.464;13.590;2023-10-09T10:50:32;12.47;87.92
71627;DHT22;59475;52.464;13.590;2023-10-09T10:53:11;12.46;89.10
71627;DHT22;59475;52.464;13.590;2023-10-09T10:55:57;12.37;88.12
71627;DHT22;59475;52.464;13.590;2023-10-09T10:58:23;12.24;88.66
71627;DHT22;59475;52.464;13.590;2023-10-09T11:00:55;12.28;88.92
71627;DHT22;59475;52.464;13.590;2023-10-09T11:03:25;12.16;88.69
71627;DHT22;59475;52.464;13.590;2023-10-09T11:12:22;12.37;87.72
71627;DHT22;59475;52.464;13.590;2023-10-09T11:14:48;12.37;87.00
71627;DHT22;59475;52.464;13.590;2023-10-09T11:17:35;12.49;86.90
71627;DHT22;59475;52.464;13.590;2023-10-09T11:20:03;12.52;86.78
71627;DHT22;59475;52.464;13.590;2023-10-09T11:22:52;12.61;86.61
71627;DHT22;59475;52.464;13.590;2023-10-09T11:25:41;12.56;86.09
71627;DHT22;59475;52.464;13.590;2023-10-09T11:28:21;12.57;86.28
71627;DHT22;59475;52.464;13.590;2023-10-09T11:31:17;12.43;86.00
71627;DHT22;59475;52.464;13.590;2023-10-09T11:33:49;12.52;86.98
71627;DHT22;59475;52.464;13.590;2023-10-09T11:36:20;12.59;87.11
71627;DHT22;59475;52.464;13.590;2023-10-09T11:42:08;12.54;86.47
71627;DHT22;59475;52.464;13.590;2023-10-09T11:44:40;12.43;87.39
71627;DHT22;59475;52.464;13.590;2023-10-09T11:47:09;12.42;88.36
71627;DHT22;59475;52.464;13.590;2023-10-09T11:49:51;12.52;87.74
71627;DHT22;59475;52.464;13.590;2023-10-09T11:52:25;12.56;87.35
71627;DHT22;59475;52.464;13.590;2023-10-09T11:55:01;12.59;87.22
71627;DHT22;59475;52.464;13.590;2023-10-09T11:57:28;12.71;87.77
71627;DHT22;59475;52.464;13.590;2023-10-09T11:59:57;12.76;87.48
71627;DHT22;59475;52.464;13.590;2023-10-09T12:02:25;12.74;87.11
71627;DHT22;59475;52.464;13.590;2023-10-09T12:04:51;12.64;86.66
71627;DHT22;59475;52.464;13.590;2023-10-09T12:07:16;12.61;86.90
71627;DHT22;59475;52.464;13.590;2023-10-09T12:09:45;12.54;87.63
71627;DHT22;59475;52.464;13.590;2023-10-09T12:12:11;12.50;88.10
71627;DHT22;59475;52.464;13.590;2023-10-09T12:14:36;12.43;88.61
71627;DHT22;59475;52.464;13.590;2023-10-09T12:17:05;12.36;88.82
71627;DHT22;59475;52.464;13.590;2023-10-09T12:19:35;12.33;89.44
71627;DHT22;59475;52.464;13.590;2023-10-09T12:22:01;12.21;89.16
71627;DHT22;59475;52.464;13.590;2023-10-09T12:24:29;12.11;89.48
71627;DHT22;59475;52.464;13.590;2023-10-09T12:26:55;12.04;89.21
71627;DHT22;59475;52.464;13.590;2023-10-09T12:29:20;11.98;90.25
71627;DHT22;59475;52.464;13.590;2023-10-09T12:31:45;12.01;90.12
71627;DHT22;59475;52.464;13.590;2023-10-09T12:34:12;12.04;89.89
71627;DHT22;59475;52.464;13.590;2023-10-09T12:36:50;12.12;90.19
71627;DHT22;59475;52.464;13.590;2023-10-09T12:39:16;12.19;90.19
71627;DHT22;59475;52.464;13.590;2023-10-09T12:45:05;12.16;88.73
71627;DHT22;59475;52.464;13.590;2023-10-09T12:47:34;12.15;88.72
71627;DHT22;59475;52.464;13.590;2023-10-09T12:50:04;12.11;88.15
71627;DHT22;59475;52.464;13.590;2023-10-09T12:52:35;12.05;88.35
71627;DHT22;59475;52.464;13.590;2023-10-09T12:55:03;11.98;89.41
71627;DHT22;59475;52.464;13.590;2023-10-09T12:57:33;11.85;89.37
71627;DHT22;59475;52.464;13.590;2023-10-09T12:59:59;11.80;88.99
71627;DHT22;59475;52.464;13.590;2023-10-09T13:02:24;11.87;89.71
71627;DHT22;59475;52.464;13.590;2023-10-09T13:04:57;11.91;89.23
71627;DHT22;59475;52.464;13.590;2023-10-09T13:07:22;11.98;88.69
71627;DHT22;59475;52.464;13.590;2023-10-09T13:09:48;11.99;88.92
71627;DHT22;59475;52.464;13.590;2023-10-09T13:12:34;12.08;88.89
71627;DHT22;59475;52.464;13.590;2023-10-09T13:15:05;12.09;88.50
71627;DHT22;59475;52.464;13.590;2023-10-09T13:17:34;12.06;88.73
71627;DHT22;59475;52.464;13.590;2023-10-09T13:20:04;12.05;88.35
71627;DHT22;59475;52.464;13.590;2023-10-09T13:22:42;12.06;88.36
71627;DHT22;59475;52.464;13.590;2023-10-09T13:25:09;12.08;88.63
71627;DHT22;59475;52.464;13.590;2023-10-09T13:27:41;12.18;89.01
71627;DHT22;59475;52.464;13.590;2023-10-09T13:33:28;12.22;87.99
71627;DHT22;59475;52.464;13.590;2023-10-09T13:36:02;12.16;88.06
71627;DHT22;59475;52.464;13.590;2023-10-09T13:38:27;12.19;88.40
71627;DHT22;59475;52.464;13.590;2023-10-09T13:44:14;12.16;88.12
71627;DHT22;59475;52.464;13.590;2023-10-09T13:46:40;12.18;88.40
71627;DHT22;59475;52.464;13.590;2023-10-09T13:49:10;12.21;88.50
71627;DHT22;59475;52.464;13.590;2023-10-09T13:51:42;12.21;88.86
71627;DHT22;59475;52.464;13.590;2023-10-09T13:54:11;12.28;88.52
71627;DHT22;59475;52.464;13.590;2023-10-09T13:56:49;12.35;88.41
71627;DHT22;59475;52.464;13.590;2023-10-09T13:59:21;12.28;87.57
71627;DHT22;59475;52.464;13.590;2023-10-09T14:05:09;12.28;87.88
71627;DHT22;59475;52.464;13.590;2023-10-09T14:07:35;12.25;87.65
71627;DHT22;59475;52.464;13.590;2023-10-09T14:10:00;12.18;87.83
71627;DHT22;59475;52.464;13.590;2023-10-09T14:12:55;12.21;88.52
71627;DHT22;59475;52.464;13.590;2023-10-09T14:15:22;12.14;87.91
71627;DHT22;59475;52.464;13.590;2023-10-09T14:17:48;12.06;87.92
71627;DHT22;59475;52.464;13.590;2023-10-09T14:23:42;12.14;88.03
71627;DHT22;59475;52.464;13.590;2023-10-09T14:26:12;12.18;88.37
71627;DHT22;59475;52.464;13.590;2023-10-09T14:28:38;12.16;88.61
71627;DHT22;59475;52.464;13.590;2023-10-09T14:31:03;12.19;88.57
71627;DHT22;59475;52.464;13.590;2023-10-09T14:36:52;12.18;87.93
71627;DHT22;59475;52.464;13.590;2023-10-09T14:39:17;12.11;88.18
71627;DHT22;59475;52.464;13.590;2023-10-09T14:41:44;12.14;88.43
71627;DHT22;59475;52.464;13.590;2023-10-09T14:44:10;12.18;88.50
71627;DHT22;59475;52.464;13.590;2023-10-09T14:46:41;12.19;88.03
71627;DHT22;59475;52.464;13.590;2023-10-09T14:49:06;12.18;88.45
71627;DHT22;59475;52.464;13.590;2023-10-09T14:51:32;12.14;88.66
71627;DHT22;59475;52.464;13.590;2023-10-09T14:57:19;12.09;88.33
71627;DHT22;59475;52.464;13.590;2023-10-09T14:59:44;12.11;88.71
71627;DHT22;59475;52.464;13.590;2023-10-09T15:02:10;12.06;88.58
71627;DHT22;59475;52.464;13.590;2023-10-09T15:04:37;12.06;89.00
71627;DHT22;59475;52.464;13.590;2023-10-09T15:07:03;12.08;89.01
71627;DHT22;59475;52.464;13.590;2023-10-09T15:09:35;12.05;89.22
71627;DHT22;59475;52.464;13.590;2023-10-09T15:12:02;11.99;89.17
71627;DHT22;59475;52.464;13.590;2023-10-09T15:14:27;12.02;89.12
71627;DHT22;59475;52.464;13.590;2023-10-09T15:16:52;11.98;89.15
71627;DHT22;59475;52.464;13.590;2023-10-09T15:19:18;11.92;89.19
71627;DHT22;59475;52.464;13.590;2023-10-09T15:21:44;11.89;89.30
71627;DHT22;59475;52.464;13.590;2023-10-09T15:24:10;11.89;89.74
71627;DHT22;59475;52.464;13.590;2023-10-09T15:26:38;11.95;89.52
71627;DHT22;59475;52.464;13.590;2023-10-09T15:29:05;11.92;89.65
71627;DHT22;59475;52.464;13.590;2023-10-09T15:31:32;11.92;89.63
71627;DHT22;59475;52.464;13.590;2023-10-09T15:37:20;11.89;89.79
71627;DHT22;59475;52.464;13.590;2023-10-09T15:39:45;11.92;90.00
71627;DHT22;59475;52.464;13.590;2023-10-09T15:45:41;11.84;90.22
71627;DHT22;59475;52.464;13.590;2023-10-09T15:51:28;11.71;90.36
71627;DHT22;59475;52.464;13.590;2023-10-09T15:53:55;11.70;90.53
71627;DHT22;59475;52.464;13.590;2023-10-09T15:56:22;11.64;90.30
71627;DHT22;59475;52.464;13.590;2023-10-09T15:58:48;11.63;90.56
71627;DHT22;59475;52.464;13.590;2023-10-09T16:01:15;11.69;90.57
71627;DHT22;59475;52.464;13.590;2023-10-09T16:03:42;11.67;90.55
71627;DHT22;59475;52.464;13.590;2023-10-09T16:06:09;11.69;90.49
71627;DHT22;59475;52.464;13.590;2023-10-09T16:11:58;11.60;90.57
71627;DHT22;59475;52.464;13.590;2023-10-09T16:14:24;11.57;90.64
71627;DHT22;59475;52.464;13.590;2023-10-09T16:16:49;11.51;90.93
71627;DHT22;59475;52.464;13.590;2023-10-09T16:19:15;11.53;90.93
71627;DHT22;59475;52.464;13.590;2023-10-09T16:24:38;11.47;91.19
71627;DHT22;59475;52.464;13.590;2023-10-09T16:27:09;11.47;91.37
71627;DHT22;59475;52.464;13.590;2023-10-09T16:29:35;11.46;91.35
71627;DHT22;59475;52.464;13.590;2023-10-09T16:32:00;11.43;91.36
71627;DHT22;59475;52.464;13.590;2023-10-09T16:34:27;11.44;91.49
71627;DHT22;59475;52.464;13.590;2023-10-09T16:36:52;11.43;91.49
71627;DHT22;59475;52.464;13.590;2023-10-09T16:42:42;11.37;91.81
71627;DHT22;59475;52.464;13.590;2023-10-09T16:45:09;11.30;91.96
71627;DHT22;59475;52.464;13.590;2023-10-09T16:47:38;11.26;92.12
71627;DHT22;59475;52.464;13.590;2023-10-09T16:50:08;11.26;92.51
71627;DHT22;59475;52.464;13.590;2023-10-09T16:52:38;11.19;92.78
71627;DHT22;59475;52.464;13.590;2023-10-09T16:55:05;11.18;92.92
71627;DHT22;59475;52.464;13.590;2023-10-09T16:57:37;11.11;93.04
71627;DHT22;59475;52.464;13.590;2023-10-09T17:00:08;11.04;93.24
71627;DHT22;59475;52.464;13.590;2023-10-09T17:03:04;11.08;93.21
71627;DHT22;59475;52.464;13.590;2023-10-09T17:05:33;11.02;93.09
71627;DHT22;59475;52.464;13.590;2023-10-09T17:08:07;10.99;93.59
71627;DHT22;59475;52.464;13.590;2023-10-09T17:10:36;11.01;93.55
71627;DHT22;59475;52.464;13.590;2023-10-09T17:13:04;10.96;93.78
71627;DHT22;59475;52.464;13.590;2023-10-09T17:15:35;10.94;94.16
71627;DHT22;59475;52.464;13.590;2023-10-09T17:18:01;10.95;94.10
71627;DHT22;59475;52.464;13.590;2023-10-09T17:20:26;10.96;94.09
71627;DHT22;59475;52.464;13.590;2023-10-09T17:22:56;10.95;94.19
71627;DHT22;59475;52.464;13.590;2023-10-09T17:25:33;10.95;94.22
71627;DHT22;59475;52.464;13.590;2023-10-09T17:27:59;10.96;94.27
71627;DHT22;59475;52.464;13.590;2023-10-09T17:30:25;10.96;94.27
71627;DHT22;59475;52.464;13.590;2023-10-09T17:32:53;10.95;94.18
71627;DHT22;59475;52.464;13.590;2023-10-09T17:35:20;10.96;94.17
71627;DHT22;59475;52.464;13.590;2023-10-09T17:37:45;10.96;94.36
71627;DHT22;59475;52.464;13.590;2023-10-09T17:40:11;11.01;94.00
71627;DHT22;59475;52.464;13.590;2023-10-09T17:42:43;10.98;94.01
71627;DHT22;59475;52.464;13.590;2023-10-09T17:45:09;11.01;94.05
71627;DHT22;59475;52.464;13.590;2023-10-09T17:47:35;10.98;94.00
71627;DHT22;59475;52.464;13.590;2023-10-09T17:50:05;10.98;94.14
71627;DHT22;59475;52.464;13.590;2023-10-09T17:52:40;10.98;94.27
71627;DHT22;59475;52.464;13.590;2023-10-09T17:55:08;10.96;94.30
71627;DHT22;59475;52.464;13.590;2023-10-09T17:57:37;10.98;94.49
71627;DHT22;59475;52.464;13.590;2023-10-09T18:00:06;10.98;94.57
71627;DHT22;59475;52.464;13.590;2023-10-09T18:02:34;10.98;94.60
71627;DHT22;59475;52.464;13.590;2023-10-09T18:05:00;10.94;94.84
71627;DHT22;59475;52.464;13.590;2023-10-09T18:07:26;10.96;94.83
71627;DHT22;59475;52.464;13.590;2023-10-09T18:09:52;10.94;95.09
71627;DHT22;59475;52.464;13.590;2023-10-09T18:12:22;10.91;95.21
71627;DHT22;59475;52.464;13.590;2023-10-09T18:14:48;10.88;95.12
71627;DHT22;59475;52.464;13.590;2023-10-09T18:17:18;10.84;95.48
71627;DHT22;59475;52.464;13.590;2023-10-09T18:19:46;10.85;95.55
71627;DHT22;59475;52.464;13.590;2023-10-09T18:22:13;10.84;95.84
71627;DHT22;59475;52.464;13.590;2023-10-09T18:24:39;10.84;95.87
71627;DHT22;59475;52.464;13.590;2023-10-09T18:27:06;10.84;96.19